createdAt,value
2023-01-25T00:00:28.526Z,4.30
2023-01-25T00:02:58.983Z,4.30
2023-01-25T00:05:29.339Z,4.30
2023-01-25T00:07:59.617Z,4.30
2023-01-25T00:10:30.301Z,4.20
2023-01-25T00:13:03.245Z,4.30
2023-01-25T00:15:34.185Z,4.40
2023-01-25T00:18:04.496Z,4.40
2023-01-25T00:20:34.881Z,4.30
2023-01-25T00:23:05.182Z,4.30
2023-01-25T00:25:35.672Z,4.20
2023-01-25T00:28:08.702Z,4.20
2023-01-25T00:30:39.073Z,4.20
2023-01-25T00:33:31.273Z,4.20
2023-01-25T00:36:03.399Z,4.20
2023-01-25T00:38:37.785Z,4.10
2023-01-25T00:41:08.324Z,4.30
2023-01-25T00:43:41.211Z,4.20
2023-01-25T00:46:13.078Z,4.10
2023-01-25T00:48:43.423Z,4.30
2023-01-25T00:51:14.437Z,4.20
2023-01-25T00:53:45.158Z,4.30
2023-01-25T00:56:15.508Z,4.20
2023-01-25T00:58:48.476Z,4.20
2023-01-25T01:01:21.246Z,4.30
2023-01-25T01:03:51.563Z,4.20
2023-01-25T01:06:21.945Z,4.30
2023-01-25T01:08:52.209Z,4.20
2023-01-25T01:11:22.702Z,4.20
2023-01-25T01:13:56.815Z,4.20
2023-01-25T01:16:27.881Z,4.20
2023-01-25T01:18:58.261Z,4.20
2023-01-25T01:21:28.951Z,4.20
2023-01-25T01:24:00.864Z,4.20
2023-01-25T01:26:31.278Z,4.20
2023-01-25T01:29:04.208Z,4.10
2023-01-25T01:31:34.880Z,4.20
2023-01-25T01:34:25.645Z,4.20
2023-01-25T01:36:57.000Z,4.20
2023-01-25T01:39:27.604Z,4.20
2023-01-25T01:42:00.924Z,4.10
2023-01-25T01:44:49.121Z,4.20
2023-01-25T01:47:25.524Z,4.10
2023-01-25T01:50:04.894Z,4.10
2023-01-25T01:52:40.421Z,4.20
2023-01-25T01:55:14.077Z,4.20
2023-01-25T01:57:50.171Z,4.10
2023-01-25T02:00:28.696Z,4.10
2023-01-25T02:02:59.202Z,4.00
2023-01-25T02:05:35.700Z,4.10
2023-01-25T02:08:08.278Z,4.10
2023-01-25T02:10:39.932Z,4.00
2023-01-25T02:13:10.366Z,4.10
2023-01-25T02:15:47.752Z,4.00
2023-01-25T02:18:19.022Z,4.10
2023-01-25T02:20:51.276Z,4.10
2023-01-25T02:23:28.362Z,4.10
2023-01-25T02:26:06.199Z,4.10
2023-01-25T02:28:39.380Z,4.20
2023-01-25T02:31:09.924Z,4.10
2023-01-25T02:33:40.460Z,4.20
2023-01-25T02:36:24.485Z,4.10
2023-01-25T02:39:02.064Z,4.00
2023-01-25T02:41:38.453Z,4.10
2023-01-25T02:44:11.636Z,4.20
2023-01-25T02:46:45.737Z,4.10
2023-01-25T02:49:17.183Z,4.00
2023-01-25T02:51:50.651Z,4.00
2023-01-25T02:54:22.620Z,4.00
2023-01-25T02:56:56.967Z,4.00
2023-01-25T02:59:29.960Z,4.10
2023-01-25T03:02:03.142Z,4.10
2023-01-25T03:04:34.923Z,4.10
2023-01-25T03:07:06.778Z,4.10
2023-01-25T03:09:37.311Z,4.10
2023-01-25T03:12:10.765Z,4.10
2023-01-25T03:14:44.640Z,4.00
2023-01-25T03:17:15.375Z,4.00
2023-01-25T03:19:45.917Z,4.10
2023-01-25T03:22:16.527Z,4.00
2023-01-25T03:24:47.491Z,4.10
2023-01-25T03:27:20.472Z,4.10
2023-01-25T03:30:04.909Z,4.10
2023-01-25T03:32:36.877Z,4.10
2023-01-25T03:35:12.343Z,4.10
2023-01-25T03:37:42.652Z,4.00
2023-01-25T03:40:14.901Z,4.00
2023-01-25T03:42:53.764Z,4.00
2023-01-25T03:45:24.228Z,4.00
2023-01-25T03:47:54.612Z,4.00
2023-01-25T03:50:25.072Z,4.00
2023-01-25T03:53:30.453Z,4.00
2023-01-25T03:56:17.705Z,4.00
2023-01-25T03:58:57.316Z,4.00
2023-01-25T04:01:27.825Z,4.00
2023-01-25T04:03:58.289Z,4.00
2023-01-25T04:06:28.826Z,4.00
2023-01-25T04:08:59.663Z,4.00
2023-01-25T04:11:34.382Z,4.00
2023-01-25T04:14:07.368Z,3.90
2023-01-25T04:16:47.261Z,3.90
2023-01-25T04:19:20.272Z,3.90
2023-01-25T04:21:50.984Z,3.90
2023-01-25T04:24:22.200Z,4.00
2023-01-25T04:26:53.036Z,3.80
2023-01-25T04:29:39.181Z,4.00
2023-01-25T04:32:11.110Z,4.00
2023-01-25T04:34:41.615Z,4.00
2023-01-25T04:37:17.140Z,4.00
2023-01-25T04:39:55.404Z,4.00
2023-01-25T04:42:26.059Z,3.90
2023-01-25T04:45:01.999Z,4.00
2023-01-25T04:47:33.200Z,3.90
2023-01-25T04:50:04.914Z,4.00
2023-01-25T04:52:36.332Z,4.00
2023-01-25T04:55:07.224Z,4.10
2023-01-25T04:57:43.745Z,4.00
2023-01-25T05:00:17.570Z,4.00
2023-01-25T05:02:48.171Z,4.00
2023-01-25T05:05:19.343Z,4.00
2023-01-25T05:07:51.210Z,3.90
2023-01-25T05:10:21.727Z,3.80
2023-01-25T05:13:12.113Z,3.90
2023-01-25T05:15:45.203Z,3.90
2023-01-25T05:18:16.736Z,3.90
2023-01-25T05:20:47.104Z,3.90
2023-01-25T05:23:17.853Z,4.00
2023-01-25T05:26:00.719Z,3.90
2023-01-25T05:28:35.648Z,3.90
2023-01-25T05:31:34.771Z,4.00
2023-01-25T05:34:05.497Z,3.90
2023-01-25T05:36:35.825Z,3.70
2023-01-25T05:39:09.333Z,3.70
2023-01-25T05:41:39.680Z,3.80
2023-01-25T05:44:10.083Z,3.90
2023-01-25T05:46:46.636Z,3.80
2023-01-25T05:49:17.902Z,3.90
2023-01-25T05:51:49.273Z,3.80
2023-01-25T05:54:20.567Z,3.80
2023-01-25T05:57:00.365Z,3.80
2023-01-25T05:59:31.029Z,3.90
2023-01-25T06:02:05.600Z,3.90
2023-01-25T06:04:36.075Z,3.80
2023-01-25T06:07:06.569Z,3.80
2023-01-25T06:09:39.074Z,3.80
2023-01-25T06:12:10.952Z,3.80
2023-01-25T06:14:41.264Z,3.80
2023-01-25T06:17:14.171Z,3.80
2023-01-25T06:20:03.228Z,3.70
2023-01-25T06:22:39.121Z,3.80
2023-01-25T06:25:11.095Z,3.80
2023-01-25T06:27:41.669Z,3.80
2023-01-25T06:30:13.922Z,3.80
2023-01-25T06:32:46.808Z,3.80
2023-01-25T06:35:17.285Z,3.90
2023-01-25T06:37:48.361Z,3.80
2023-01-25T06:40:19.135Z,3.80
2023-01-25T06:42:49.429Z,3.80
2023-01-25T06:45:19.992Z,3.90
2023-01-25T06:47:54.619Z,3.80
2023-01-25T06:50:25.253Z,3.90
2023-01-25T06:52:55.886Z,3.70
2023-01-25T06:55:26.534Z,3.80
2023-01-25T06:57:56.865Z,3.60
2023-01-25T07:00:27.394Z,3.60
2023-01-25T07:03:00.350Z,3.70
2023-01-25T07:05:30.775Z,3.70
2023-01-25T07:08:01.129Z,3.70
2023-01-25T07:10:33.066Z,3.70
2023-01-25T07:13:04.248Z,3.70
2023-01-25T07:15:34.574Z,3.70
2023-01-25T07:18:15.882Z,3.60
2023-01-25T07:20:46.495Z,3.70
2023-01-25T07:23:16.921Z,3.70
2023-01-25T07:25:48.072Z,3.60
2023-01-25T07:28:19.348Z,3.60
2023-01-25T07:30:49.766Z,3.70
2023-01-25T07:33:22.824Z,3.60
2023-01-25T07:35:53.370Z,3.60
2023-01-25T07:38:23.974Z,3.70
2023-01-25T07:40:56.073Z,3.60
2023-01-25T07:43:26.627Z,3.60
2023-01-25T07:45:57.041Z,3.60
2023-01-25T07:48:30.003Z,3.70
2023-01-25T07:51:14.282Z,3.60
2023-01-25T07:53:46.091Z,3.60
2023-01-25T07:56:16.564Z,3.50
2023-01-25T07:58:47.171Z,3.50
2023-01-25T08:01:19.346Z,3.40
2023-01-25T08:03:53.253Z,3.40
2023-01-25T08:06:30.881Z,3.30
2023-01-25T08:09:02.135Z,3.40
2023-01-25T08:11:34.088Z,3.30
2023-01-25T08:14:04.837Z,3.30
2023-01-25T08:16:36.006Z,3.30
2023-01-25T08:19:10.126Z,3.40
2023-01-25T08:21:40.571Z,3.20
2023-01-25T08:24:11.660Z,3.20
2023-01-25T08:26:43.868Z,3.30
2023-01-25T08:29:15.728Z,3.30
2023-01-25T08:31:47.117Z,3.50
2023-01-25T08:34:20.190Z,3.30
2023-01-25T08:39:21.808Z,3.30
2023-01-25T08:41:52.165Z,3.30
2023-01-25T08:44:24.350Z,3.20
2023-01-25T08:46:54.771Z,3.00
2023-01-25T08:49:27.853Z,3.10
2023-01-25T08:51:58.703Z,3.10
2023-01-25T08:54:29.017Z,3.20
2023-01-25T08:56:59.397Z,3.20
2023-01-25T08:59:30.147Z,3.20
2023-01-25T09:02:00.556Z,3.20
2023-01-25T09:04:33.829Z,3.30
2023-01-25T09:07:04.556Z,3.10
2023-01-25T09:09:35.025Z,3.20
2023-01-25T09:12:05.517Z,3.20
2023-01-25T09:14:37.177Z,3.20
2023-01-25T09:17:07.565Z,3.20
2023-01-25T09:19:42.641Z,3.30
2023-01-25T09:22:12.997Z,3.20
2023-01-25T09:24:43.546Z,3.20
2023-01-25T09:27:13.947Z,3.10
2023-01-25T09:29:59.946Z,3.00
2023-01-25T09:32:32.588Z,3.30
2023-01-25T09:35:06.338Z,3.30
2023-01-25T09:37:36.940Z,3.10
2023-01-25T09:40:08.860Z,3.20
2023-01-25T09:42:57.049Z,3.20
2023-01-25T09:45:34.542Z,2.90
2023-01-25T09:48:13.730Z,3.00
2023-01-25T09:51:03.117Z,3.10
2023-01-25T09:53:37.694Z,3.10
2023-01-25T09:56:15.267Z,3.10
2023-01-25T09:58:49.324Z,3.10
2023-01-25T10:01:38.687Z,3.00
2023-01-25T10:04:17.700Z,3.10
2023-01-25T10:07:00.672Z,3.10
2023-01-25T10:09:40.615Z,3.10
2023-01-25T10:12:19.356Z,3.00
2023-01-25T10:14:49.785Z,3.00
2023-01-25T10:17:29.922Z,3.00
2023-01-25T10:20:24.562Z,3.00
2023-01-25T10:23:07.545Z,3.20
2023-01-25T10:25:42.075Z,3.10
2023-01-25T10:28:30.207Z,2.90
2023-01-25T10:31:05.587Z,3.00
2023-01-25T10:33:39.433Z,3.10
2023-01-25T10:36:15.017Z,3.00
2023-01-25T10:38:49.205Z,3.00
2023-01-25T10:41:25.170Z,3.10
2023-01-25T10:44:21.320Z,3.00
2023-01-25T10:46:56.632Z,2.90
2023-01-25T10:49:31.651Z,3.00
2023-01-25T10:52:16.927Z,3.10
2023-01-25T10:54:50.830Z,2.90
2023-01-25T10:57:23.132Z,2.90
2023-01-25T10:59:55.887Z,3.00
2023-01-25T11:02:43.810Z,2.90
2023-01-25T11:05:30.210Z,3.10
2023-01-25T11:08:01.573Z,2.90
2023-01-25T11:10:37.156Z,2.90
2023-01-25T11:13:24.105Z,3.00
2023-01-25T11:15:56.058Z,2.90
2023-01-25T11:18:28.790Z,3.00
2023-01-25T11:21:10.460Z,3.00
2023-01-25T11:23:41.110Z,3.10
2023-01-25T11:26:19.618Z,3.10
2023-01-25T11:28:51.474Z,2.90
2023-01-25T11:31:24.520Z,2.90
2023-01-25T11:33:54.990Z,2.90
2023-01-25T11:36:32.785Z,2.90
2023-01-25T11:39:21.948Z,2.80
2023-01-25T11:42:09.802Z,2.90
2023-01-25T11:45:16.296Z,2.90
2023-01-25T11:47:57.921Z,2.90
2023-01-25T11:50:37.045Z,3.10
2023-01-25T11:53:36.641Z,3.00
2023-01-25T11:56:16.688Z,3.10
2023-01-25T11:59:07.584Z,3.10
2023-01-25T12:01:45.843Z,3.00
2023-01-25T12:05:09.660Z,3.20
2023-01-25T12:07:54.674Z,3.10
2023-01-25T12:10:34.685Z,2.90
2023-01-25T12:13:15.024Z,3.00
2023-01-25T12:16:06.319Z,3.00
2023-01-25T12:19:08.678Z,3.00
2023-01-25T12:25:27.617Z,2.80
2023-01-25T12:28:15.047Z,2.90
2023-01-25T12:30:55.802Z,2.80
2023-01-25T12:33:32.407Z,2.90
2023-01-25T12:36:07.746Z,3.20
2023-01-25T12:38:44.311Z,3.00
2023-01-25T12:41:26.271Z,3.00
2023-01-25T12:44:01.857Z,2.90
2023-01-25T12:46:42.031Z,2.90
2023-01-25T12:49:21.368Z,2.80
2023-01-25T12:51:53.602Z,2.80
2023-01-25T12:54:51.600Z,2.70
2023-01-25T12:57:30.408Z,3.00
2023-01-25T13:00:10.895Z,3.10
2023-01-25T13:03:05.318Z,3.00
2023-01-25T13:05:40.786Z,3.00
2023-01-25T13:11:39.029Z,3.00
2023-01-25T13:14:42.162Z,3.00
2023-01-25T13:17:38.375Z,3.10
2023-01-25T13:20:51.284Z,3.00
2023-01-25T13:23:34.687Z,3.00
2023-01-25T13:26:35.308Z,3.00
2023-01-25T13:29:05.818Z,3.00
2023-01-25T13:31:53.588Z,3.00
2023-01-25T13:34:54.155Z,3.00
2023-01-25T13:37:29.838Z,2.80
2023-01-25T13:40:09.216Z,2.80
2023-01-25T13:42:42.881Z,2.90
2023-01-25T13:45:18.868Z,2.90
2023-01-25T13:48:04.272Z,2.80
2023-01-25T13:50:40.393Z,2.90
2023-01-25T13:53:23.350Z,2.90
2023-01-25T13:55:56.069Z,3.00
2023-01-25T13:58:29.034Z,3.00
2023-01-25T14:01:04.339Z,3.00
2023-01-25T14:03:39.193Z,2.90
2023-01-25T14:06:18.534Z,2.90
2023-01-25T14:08:53.105Z,2.90
2023-01-25T14:11:25.148Z,3.00
2023-01-25T14:14:00.053Z,3.00
2023-01-25T14:16:32.220Z,2.90
2023-01-25T14:19:29.156Z,3.20
2023-01-25T14:22:22.188Z,3.10
2023-01-25T14:25:14.961Z,3.00
2023-01-25T14:27:47.831Z,3.00
2023-01-25T14:30:25.052Z,3.00
2023-01-25T14:32:57.481Z,3.00
2023-01-25T14:35:54.348Z,3.00
2023-01-25T14:38:32.286Z,2.90
2023-01-25T14:41:10.467Z,2.90
2023-01-25T14:43:43.277Z,3.00
2023-01-25T14:46:31.687Z,3.00
2023-01-25T14:49:29.615Z,2.90
2023-01-25T14:52:05.560Z,3.00
2023-01-25T14:54:39.136Z,2.90
2023-01-25T14:57:34.179Z,3.10
2023-01-25T15:00:07.196Z,3.00
2023-01-25T15:02:43.830Z,3.00
2023-01-25T15:05:24.162Z,3.10
2023-01-25T15:07:56.670Z,3.00
2023-01-25T15:10:28.737Z,3.00
2023-01-25T15:13:14.157Z,3.00
2023-01-25T15:16:03.512Z,3.00
2023-01-25T15:18:50.902Z,3.00
2023-01-25T15:21:22.871Z,3.00
2023-01-25T15:23:53.532Z,3.00
2023-01-25T15:26:25.692Z,3.10
2023-01-25T15:29:00.796Z,3.00
2023-01-25T15:31:33.361Z,3.10
2023-01-25T15:34:05.196Z,3.10
2023-01-25T15:36:36.780Z,3.00
2023-01-25T15:39:07.444Z,3.00
2023-01-25T15:41:38.012Z,3.00
2023-01-25T15:44:11.391Z,3.00
2023-01-25T15:46:45.054Z,2.90
2023-01-25T15:49:20.565Z,3.00
2023-01-25T15:51:51.176Z,2.80
2023-01-25T15:54:21.811Z,2.90
2023-01-25T15:56:57.231Z,3.00
2023-01-25T15:59:30.873Z,3.00
2023-01-25T16:02:01.403Z,2.90
2023-01-25T16:04:31.829Z,2.90
2023-01-25T16:07:02.533Z,3.00
2023-01-25T16:09:34.246Z,3.00
2023-01-25T16:12:05.135Z,3.10
2023-01-25T16:14:38.162Z,3.00
2023-01-25T16:17:08.559Z,3.10
2023-01-25T16:19:38.889Z,3.10
2023-01-25T16:22:09.217Z,3.00
2023-01-25T16:24:40.127Z,2.90
2023-01-25T16:27:20.643Z,3.00
2023-01-25T16:29:53.805Z,2.90
2023-01-25T16:32:24.299Z,3.00
2023-01-25T16:34:54.686Z,2.90
2023-01-25T16:37:25.103Z,2.80
2023-01-25T16:39:55.560Z,2.80
2023-01-25T16:42:26.079Z,2.80
2023-01-25T16:44:59.323Z,2.80
2023-01-25T16:47:29.802Z,2.80
2023-01-25T16:50:00.185Z,2.80
2023-01-25T16:52:30.628Z,2.70
2023-01-25T16:55:01.218Z,2.50
2023-01-25T16:57:31.582Z,2.50
2023-01-25T17:00:05.594Z,2.50
2023-01-25T17:02:37.298Z,2.50
2023-01-25T17:05:10.105Z,2.30
2023-01-25T17:07:40.833Z,2.30
2023-01-25T17:10:12.760Z,2.50
2023-01-25T17:12:43.372Z,2.50
2023-01-25T17:15:18.080Z,2.60
2023-01-25T17:17:48.743Z,2.50
2023-01-25T17:20:20.083Z,2.50
2023-01-25T17:22:51.435Z,2.40
2023-01-25T17:25:21.947Z,2.40
2023-01-25T17:27:52.485Z,2.30
2023-01-25T17:30:25.571Z,2.30
2023-01-25T17:32:56.165Z,2.40
2023-01-25T17:35:26.515Z,2.30
2023-01-25T17:37:57.588Z,2.30
2023-01-25T17:40:27.889Z,2.20
2023-01-25T17:42:58.279Z,2.20
2023-01-25T17:45:31.466Z,2.20
2023-01-25T17:48:01.893Z,2.30
2023-01-25T17:50:32.260Z,2.20
2023-01-25T17:53:02.693Z,2.40
2023-01-25T17:55:33.328Z,2.40
2023-01-25T17:58:03.721Z,2.50
2023-01-25T18:00:36.723Z,2.40
2023-01-25T18:03:07.155Z,2.30
2023-01-25T18:05:37.512Z,2.40
2023-01-25T18:08:08.739Z,2.40
2023-01-25T18:10:41.437Z,2.40
2023-01-25T18:13:11.820Z,2.50
2023-01-25T18:15:44.841Z,2.60
2023-01-25T18:18:15.370Z,2.60
2023-01-25T18:20:45.784Z,2.40
2023-01-25T18:23:16.174Z,2.50
2023-01-25T18:25:46.602Z,2.50
2023-01-25T18:28:17.414Z,2.50
2023-01-25T18:30:55.456Z,2.50
2023-01-25T18:33:26.146Z,2.50
2023-01-25T18:36:01.901Z,2.60
2023-01-25T18:38:33.545Z,2.40
2023-01-25T18:41:03.906Z,2.50
2023-01-25T18:43:34.462Z,2.60
2023-01-25T18:46:08.069Z,2.50
2023-01-25T18:48:38.582Z,2.50
2023-01-25T18:51:11.436Z,2.50
2023-01-25T18:53:44.106Z,2.50
2023-01-25T18:56:16.218Z,2.50
2023-01-25T18:58:47.726Z,2.50
2023-01-25T19:01:22.513Z,2.50
2023-01-25T19:03:54.156Z,2.50
2023-01-25T19:06:24.482Z,2.60
2023-01-25T19:08:56.608Z,2.60
2023-01-25T19:11:27.313Z,2.60
2023-01-25T19:13:58.482Z,2.70
2023-01-25T19:16:31.583Z,2.60
2023-01-25T19:19:01.914Z,2.60
2023-01-25T19:21:32.392Z,2.60
2023-01-25T19:24:02.880Z,2.60
2023-01-25T19:26:33.522Z,2.60
2023-01-25T19:29:03.887Z,2.60
2023-01-25T19:31:37.630Z,2.70
2023-01-25T19:34:09.764Z,2.60
2023-01-25T19:36:45.912Z,2.60
2023-01-25T19:39:16.258Z,2.60
2023-01-25T19:41:46.697Z,2.70
2023-01-25T19:44:17.720Z,2.60
2023-01-25T19:46:51.232Z,2.60
2023-01-25T19:49:22.456Z,2.60
2023-01-25T19:51:53.481Z,2.60
2023-01-25T19:54:24.427Z,2.70
2023-01-25T19:56:55.037Z,2.60
2023-01-25T19:59:27.823Z,2.60
2023-01-25T20:02:00.859Z,2.50
2023-01-25T20:04:31.468Z,2.60
2023-01-25T20:07:01.815Z,2.50
2023-01-25T20:09:32.668Z,2.50
2023-01-25T20:12:05.952Z,2.50
2023-01-25T20:14:36.624Z,2.50
2023-01-25T20:17:10.215Z,2.50
2023-01-25T20:19:40.664Z,2.50
2023-01-25T20:22:10.929Z,2.50
2023-01-25T20:24:41.409Z,2.50
2023-01-25T20:27:11.743Z,2.60
2023-01-25T20:29:42.803Z,2.50
2023-01-25T20:32:31.505Z,2.50
2023-01-25T20:35:06.226Z,2.50
2023-01-25T20:37:36.538Z,2.50
2023-01-25T20:40:07.453Z,2.50
2023-01-25T20:42:37.817Z,2.60
2023-01-25T20:45:11.643Z,2.50
2023-01-25T20:47:44.778Z,2.50
2023-01-25T20:50:15.181Z,2.50
2023-01-25T20:52:45.520Z,2.50
2023-01-25T20:55:15.940Z,2.50
2023-01-25T20:57:46.262Z,2.50
2023-01-25T21:00:18.160Z,2.50
2023-01-25T21:02:51.075Z,2.50
2023-01-25T21:05:21.546Z,2.50
2023-01-25T21:07:51.847Z,2.50
2023-01-25T21:10:22.576Z,2.40
2023-01-25T21:12:53.053Z,2.50
2023-01-25T21:15:25.576Z,2.40
2023-01-25T21:17:58.711Z,2.50
2023-01-25T21:20:29.066Z,2.40
2023-01-25T21:22:59.379Z,2.50
2023-01-25T21:25:29.934Z,2.40
2023-01-25T21:28:00.315Z,2.40
2023-01-25T21:30:31.851Z,2.50
2023-01-25T21:33:04.790Z,2.30
2023-01-25T21:35:36.250Z,2.50
2023-01-25T21:38:06.572Z,2.30
2023-01-25T21:40:36.917Z,2.40
2023-01-25T21:43:07.229Z,2.40
2023-01-25T21:45:58.683Z,2.40
2023-01-25T21:48:43.877Z,2.30
2023-01-25T21:51:27.733Z,2.40
2023-01-25T21:53:58.088Z,2.30
2023-01-25T21:56:28.481Z,2.30
2023-01-25T21:58:58.809Z,2.30
2023-01-25T22:01:29.218Z,2.40
2023-01-25T22:04:02.140Z,2.30
2023-01-25T22:06:32.698Z,2.30
2023-01-25T22:09:03.012Z,2.30
2023-01-25T22:11:33.360Z,2.30
2023-01-25T22:14:03.740Z,2.30
2023-01-25T22:16:34.452Z,2.40
2023-01-25T22:19:07.572Z,2.40
2023-01-25T22:21:37.929Z,2.30
2023-01-25T22:24:09.621Z,2.40
2023-01-25T22:26:50.247Z,2.30
2023-01-25T22:29:20.582Z,2.40
2023-01-25T22:31:51.451Z,2.30
2023-01-25T22:34:24.549Z,2.40
2023-01-25T22:36:55.047Z,2.40
2023-01-25T22:39:25.324Z,2.30
2023-01-25T22:41:56.010Z,2.40
2023-01-25T22:44:26.449Z,2.30
2023-01-25T22:46:56.918Z,2.40
2023-01-25T22:49:29.833Z,2.40
2023-01-25T22:52:00.448Z,2.40
2023-01-25T22:54:30.828Z,2.40
2023-01-25T22:57:01.825Z,2.50
2023-01-25T22:59:32.126Z,2.30
2023-01-25T23:02:02.532Z,2.40
2023-01-25T23:04:35.518Z,2.40
2023-01-25T23:07:12.180Z,2.40
2023-01-25T23:09:43.154Z,2.40
2023-01-25T23:12:13.634Z,2.40
2023-01-25T23:15:00.027Z,2.40
2023-01-25T23:17:42.637Z,2.50
2023-01-25T23:20:16.600Z,2.50
2023-01-25T23:22:47.420Z,2.40
2023-01-25T23:25:17.843Z,2.60
2023-01-25T23:27:49.971Z,2.50
2023-01-25T23:30:21.271Z,2.40
2023-01-25T23:32:52.080Z,2.40
2023-01-25T23:35:25.116Z,2.50
2023-01-25T23:37:55.470Z,2.50
2023-01-25T23:40:25.768Z,2.40
2023-01-25T23:42:57.848Z,2.30
2023-01-25T23:45:28.302Z,2.60
2023-01-25T23:47:58.671Z,2.50
2023-01-25T23:50:31.652Z,2.60
2023-01-25T23:53:02.030Z,2.40
2023-01-25T23:55:32.389Z,2.40
2023-01-25T23:58:04.492Z,2.50
